Hauptseite
METAR-TAF:

METAR-TAF

Flughäfen :

Tiaret, Algerien

Breite: 35-15N, Länge: 001-26E, Höhe: 1127 m

Beobachtung

Neuester Wetterbericht von vor 20 Minuten, um 14:00 UTC
Wind 6 kt aus West/Südwest
Temperatur 18°C
Luftfeuchtigkeit 26%
Luftdruck 1023 hPa
Sichtweite 10 km oder mehr
keine Wolken unter 1500 m und keine Kumulonimbus oder Gewitterwolken

METAR: DAOB 201400Z 25006KT CAVOK 18/M02 Q1023

Zeit: 15:20 (14:20 UTC)

Prognose

Neuester Wetterbericht von vor 3 Stunden und 20 Minuten, um 11:00 UTC
Gültige Prognose vom 20 um 12 UTC bis 21 um 12 UTC
Wind 6 kt aus Süd/Südwest
Sichtweite 10 km oder mehr
keine Wolken unter 1500 m und keine Kumulonimbus oder Gewitterwolken

TAF: DAOB 201100Z 2012/2112 20006KT CAVOK

Wetterbeobachtungen und Prognosen von mehr als 4000 Flughäfen (METAR und TAF Bericht).

Die verfügbaren Stationen werden durch gelbe und rote Markierungen auf der Karte dargestellt.

Führen Sie die Maus auf sie, um den Namen der Station zu sehen.

Darauf klicken, um die Beobachtung von Wetterbeobachtungen und Prognosen zu sehen.

Um die Karte zu ändern : klicken Sie auf den grünen Tasten mit einem schwarzen Kreuz Zum Vergrößern, auf den grünen Button mit einem Gedankenstrich zu verkleinern, oder auf die grünen Pfeile für benachbarte Karten.


METAR-TAF: